Time;durP1;ratioP1;P1;durP2;ratioP2;P2;SDS_P1;SDS_P2;PMS_P1;PMS_P2;Temp;Humidity;BMP_temperature;BMP_pressure;BME280_temperature;BME280_humidity;BME280_pressure;Samples;Min_cycle;Max_cycle;Signal;HPM_P1;HPM_P2
2023/06/02 00:01:49;;;;;;;6.50;3.70;;;;;;;-128.00;-1.00;-1.00;97691;295;1005580;-31
2023/06/02 00:04:17;;;;;;;6.70;4.40;;;;;;;-128.00;-1.00;-1.00;97089;295;1005248;-34
2023/06/02 00:06:47;;;;;;;6.60;3.40;;;;;;;-128.00;-1.00;-1.00;97774;288;1005338;-33
2023/06/02 00:09:13;;;;;;;4.30;3.20;;;;;;;-128.00;-1.00;-1.00;97691;284;1005644;-34
2023/06/02 00:11:39;;;;;;;6.50;4.10;;;;;;;-128.00;-1.00;-1.00;97788;295;1004678;-33
2023/06/02 00:14:05;;;;;;;8.60;4.20;;;;;;;-128.00;-1.00;-1.00;97738;295;1005764;-29
2023/06/02 00:16:32;;;;;;;8.20;5.00;;;;;;;-128.00;-1.00;-1.00;97625;295;1004307;-33
2023/06/02 00:18:58;;;;;;;14.60;5.20;;;;;;;-128.00;-1.00;-1.00;97537;295;1005244;-33
2023/06/02 00:21:24;;;;;;;11.50;4.60;;;;;;;-128.00;-1.00;-1.00;97639;295;1005432;-29
2023/06/02 00:23:49;;;;;;;6.50;3.70;;;;;;;-128.00;-1.00;-1.00;97677;295;1005235;-29
2023/06/02 00:26:15;;;;;;;5.30;3.10;;;;;;;-128.00;-1.00;-1.00;97662;295;1004751;-35
2023/06/02 00:28:41;;;;;;;4.40;3.00;;;;;;;-128.00;-1.00;-1.00;97699;295;1006169;-31
2023/06/02 00:31:06;;;;;;;3.90;2.40;;;;;;;-128.00;-1.00;-1.00;97684;295;1005679;-34
2023/06/02 01:14:00;;;;;;;14.40;3.70;;;;;;;-100.55;16.95;19827.64;98362;295;1542213;-34
2023/06/02 01:16:27;;;;;;;8.60;4.10;;;;;;;-128.00;-1.00;-1.00;97693;284;1004016;-30
2023/06/02 01:18:52;;;;;;;5.80;3.30;;;;;;;-128.00;-1.00;-1.00;97871;296;1003532;-33
2023/06/02 01:21:22;;;;;;;4.50;3.20;;;;;;;-128.00;-1.00;-1.00;97845;296;1004356;-29
2023/06/02 01:23:53;;;;;;;6.80;3.50;;;;;;;-128.00;-1.00;-1.00;97904;296;1003330;-31
2023/06/02 01:26:18;;;;;;;5.80;3.40;;;;;;;-128.00;-1.00;-1.00;98007;296;1003430;-33
2023/06/02 01:28:44;;;;;;;4.30;2.70;;;;;;;-128.00;-1.00;-1.00;97822;296;1003883;-30
2023/06/02 01:31:22;;;;;;;4.60;3.00;;;;;;;-128.00;-1.00;-1.00;97945;296;1003222;-34
2023/06/02 01:34:05;;;;;;;8.90;3.60;;;;;;;-128.00;-1.00;-1.00;97933;296;1003750;-34
2023/06/02 01:36:32;;;;;;;4.30;3.10;;;;;;;-128.00;-1.00;-1.00;96999;296;1017766;-28
2023/06/02 01:38:58;;;;;;;8.20;4.80;;;;;;;-128.00;-1.00;-1.00;36287;296;7504974;-33
2023/06/02 01:41:24;;;;;;;8.10;4.30;;;;;;;-128.00;-1.00;-1.00;19355;297;7224342;-30
2023/06/02 01:43:49;;;;;;;6.70;3.60;;;;;;;-128.00;-1.00;-1.00;89802;296;7503784;-34
2023/06/02 01:46:16;;;;;;;5.50;4.10;;;;;;;-128.00;-1.00;-1.00;97906;286;1004961;-33
2023/06/02 01:48:41;;;;;;;7.40;4.30;;;;;;;-128.00;-1.00;-1.00;97949;296;1003037;-29
2023/06/02 01:51:07;;;;;;;12.30;4.30;;;;;;;-128.00;-1.00;-1.00;97949;296;1005011;-39
2023/06/02 01:53:32;;;;;;;9.40;4.90;;;;;;;-128.00;-1.00;-1.00;97938;296;1003454;-30
2023/06/02 01:55:58;;;;;;;9.40;6.70;;;;;;;-128.00;-1.00;-1.00;97863;296;1004762;-31
2023/06/02 01:58:24;;;;;;;6.60;4.90;;;;;;;-128.00;-1.00;-1.00;97947;296;1003222;-31
2023/06/02 02:00:50;;;;;;;7.50;4.90;;;;;;;-128.00;-1.00;-1.00;97884;296;1003454;-35
2023/06/02 02:03:17;;;;;;;11.70;5.50;;;;;;;-128.00;-1.00;-1.00;97807;296;1003795;-35
2023/06/02 02:05:43;;;;;;;9.20;5.40;;;;;;;-128.00;-1.00;-1.00;97884;296;1003039;-28
2023/06/02 02:08:12;;;;;;;8.60;4.80;;;;;;;-128.00;-1.00;-1.00;97905;296;1003742;-31
2023/06/02 02:10:37;;;;;;;10.60;4.80;;;;;;;-128.00;-1.00;-1.00;98063;295;1003219;-30
2023/06/02 02:13:03;;;;;;;18.00;6.20;;;;;;;-128.00;-1.00;-1.00;97710;296;1003273;-31
2023/06/02 02:15:29;;;;;;;9.40;4.20;;;;;;;-128.00;-1.00;-1.00;97790;296;1002665;-29
2023/06/02 02:17:56;;;;;;;7.90;4.30;;;;;;;-128.00;-1.00;-1.00;97900;296;1003489;-30
2023/06/02 02:20:23;;;;;;;8.90;4.40;;;;;;;-128.00;-1.00;-1.00;97889;296;1003853;-29
2023/06/02 02:22:48;;;;;;;9.70;3.70;;;;;;;-128.00;-1.00;-1.00;97908;296;1003756;-29
2023/06/02 02:25:14;;;;;;;5.70;4.80;;;;;;;-128.00;-1.00;-1.00;97979;296;1003862;-31
2023/06/02 02:27:40;;;;;;;12.60;7.50;;;;;;;-128.00;-1.00;-1.00;97896;296;1002430;-34
2023/06/02 02:30:07;;;;;;;8.60;5.90;;;;;;;-128.00;-1.00;-1.00;97966;285;1003778;-31
2023/06/02 02:32:35;;;;;;;12.20;6.60;;;;;;;-128.00;-1.00;-1.00;97853;285;1002937;-31
2023/06/02 02:35:01;;;;;;;13.90;7.20;;;;;;;-128.00;-1.00;-1.00;97843;285;1002931;-35
2023/06/02 02:37:30;;;;;;;8.50;6.00;;;;;;;-128.00;-1.00;-1.00;97801;296;1003079;-33
2023/06/02 02:39:56;;;;;;;11.40;6.00;;;;;;;-128.00;-1.00;-1.00;97902;285;1004539;-28
2023/06/02 02:42:21;;;;;;;10.30;6.10;;;;;;;-128.00;-1.00;-1.00;97948;285;1002179;-29
2023/06/02 02:44:47;;;;;;;8.00;5.30;;;;;;;-128.00;-1.00;-1.00;97918;296;1003918;-29
2023/06/02 02:47:12;;;;;;;11.90;5.60;;;;;;;-128.00;-1.00;-1.00;97913;296;1003145;-29
2023/06/02 02:49:38;;;;;;;10.80;6.00;;;;;;;-128.00;-1.00;-1.00;97937;296;1003247;-30
2023/06/02 02:52:04;;;;;;;12.70;5.70;;;;;;;-128.00;-1.00;-1.00;97978;285;1003372;-34
2023/06/02 02:54:30;;;;;;;9.20;5.40;;;;;;;-128.00;-1.00;-1.00;97848;285;1003768;-29
2023/06/02 02:56:55;;;;;;;15.00;5.30;;;;;;;-128.00;-1.00;-1.00;97909;285;1005182;-33
2023/06/02 02:59:21;;;;;;;8.40;4.50;;;;;;;-128.00;-1.00;-1.00;97842;285;1003304;-33
2023/06/02 03:01:47;;;;;;;9.30;4.50;;;;;;;-128.00;-1.00;-1.00;97845;296;1003214;-30
2023/06/02 03:04:18;;;;;;;10.60;5.00;;;;;;;-128.00;-1.00;-1.00;97996;285;1003177;-30
2023/06/02 03:06:45;;;;;;;14.20;5.30;;;;;;;-128.00;-1.00;-1.00;97805;296;1002683;-30
2023/06/02 03:09:12;;;;;;;22.90;5.80;;;;;;;-128.00;-1.00;-1.00;98044;285;1005432;-34
2023/06/02 03:11:37;;;;;;;8.80;4.20;;;;;;;-128.00;-1.00;-1.00;97863;296;1003188;-29
2023/06/02 03:14:03;;;;;;;6.30;4.40;;;;;;;-128.00;-1.00;-1.00;97905;296;1003675;-33
2023/06/02 03:16:28;;;;;;;11.30;4.80;;;;;;;-128.00;-1.00;-1.00;97863;296;1003430;-34
2023/06/02 03:18:55;;;;;;;11.90;5.00;;;;;;;-128.00;-1.00;-1.00;97883;285;1002860;-34
2023/06/02 03:21:22;;;;;;;8.30;4.80;;;;;;;-128.00;-1.00;-1.00;97841;296;1003964;-29
2023/06/02 03:23:49;;;;;;;10.60;4.30;;;;;;;-128.00;-1.00;-1.00;97913;296;1003503;-29
2023/06/02 03:26:16;;;;;;;15.50;4.40;;;;;;;-128.00;-1.00;-1.00;97934;296;1003433;-33
2023/06/02 03:28:42;;;;;;;7.50;3.90;;;;;;;-128.00;-1.00;-1.00;97937;296;1005520;-29
2023/06/02 03:31:09;;;;;;;15.60;5.60;;;;;;;-128.00;-1.00;-1.00;97886;285;1003277;-30
2023/06/02 03:33:35;;;;;;;6.00;4.20;;;;;;;-128.00;-1.00;-1.00;97907;285;1004061;-31
2023/06/02 03:36:01;;;;;;;11.90;5.00;;;;;;;-128.00;-1.00;-1.00;97904;296;1005261;-32
2023/06/02 03:38:27;;;;;;;12.60;4.40;;;;;;;-128.00;-1.00;-1.00;98010;296;1004734;-31
2023/06/02 03:40:52;;;;;;;8.60;4.10;;;;;;;-128.00;-1.00;-1.00;97810;296;1003119;-29
2023/06/02 03:43:18;;;;;;;5.20;4.20;;;;;;;-128.00;-1.00;-1.00;97897;296;1005012;-33
2023/06/02 03:45:45;;;;;;;12.00;4.30;;;;;;;-128.00;-1.00;-1.00;97906;285;1004260;-35
2023/06/02 03:48:11;;;;;;;5.80;4.10;;;;;;;-128.00;-1.00;-1.00;97998;296;1004374;-35
2023/06/02 03:50:38;;;;;;;13.60;4.90;;;;;;;-128.00;-1.00;-1.00;97932;296;1003124;-30
2023/06/02 03:53:05;;;;;;;9.80;5.00;;;;;;;-128.00;-1.00;-1.00;97961;289;1003403;-34
2023/06/02 03:55:31;;;;;;;8.70;4.90;;;;;;;-128.00;-1.00;-1.00;97838;296;1003290;-34
2023/06/02 03:57:57;;;;;;;11.60;6.20;;;;;;;-128.00;-1.00;-1.00;97811;285;1002748;-33
2023/06/02 04:00:22;;;;;;;13.10;5.60;;;;;;;-128.00;-1.00;-1.00;97903;285;1005610;-33
2023/06/02 04:02:48;;;;;;;7.20;4.90;;;;;;;-128.00;-1.00;-1.00;97761;285;1005356;-33
2023/06/02 04:05:14;;;;;;;10.40;5.00;;;;;;;-128.00;-1.00;-1.00;97868;285;1002646;-34
2023/06/02 04:07:40;;;;;;;8.00;4.80;;;;;;;-128.00;-1.00;-1.00;97913;285;1004013;-34
2023/06/02 04:10:06;;;;;;;10.10;3.50;;;;;;;-128.00;-1.00;-1.00;97868;296;1003072;-38
2023/06/02 04:12:32;;;;;;;7.60;4.20;;;;;;;-128.00;-1.00;-1.00;98012;285;1003448;-34
2023/06/02 04:14:58;;;;;;;13.70;6.20;;;;;;;-128.00;-1.00;-1.00;97867;296;1002992;-33
2023/06/02 04:17:25;;;;;;;6.70;3.80;;;;;;;-128.00;-1.00;-1.00;97849;285;1003374;-33
2023/06/02 04:19:52;;;;;;;8.00;3.40;;;;;;;-128.00;-1.00;-1.00;97806;285;1002909;-31
2023/06/02 04:22:19;;;;;;;8.90;5.10;;;;;;;-128.00;-1.00;-1.00;98040;296;1003183;-33
2023/06/02 04:24:45;;;;;;;22.30;6.10;;;;;;;-128.00;-1.00;-1.00;97845;296;1005461;-33
2023/06/02 04:27:11;;;;;;;11.00;4.80;;;;;;;-128.00;-1.00;-1.00;97936;285;1002891;-34
2023/06/02 04:29:37;;;;;;;11.60;5.70;;;;;;;-128.00;-1.00;-1.00;97803;296;1003105;-29
2023/06/02 04:32:03;;;;;;;10.70;4.90;;;;;;;-128.00;-1.00;-1.00;97909;285;1003646;-34
2023/06/02 04:34:31;;;;;;;5.50;4.40;;;;;;;-128.00;-1.00;-1.00;97945;296;1004095;-33
2023/06/02 04:36:58;;;;;;;8.10;5.70;;;;;;;-128.00;-1.00;-1.00;97948;296;1004607;-33
2023/06/02 04:39:24;;;;;;;9.50;5.40;;;;;;;-128.00;-1.00;-1.00;97861;296;1003918;-35
2023/06/02 04:41:50;;;;;;;7.90;4.30;;;;;;;-128.00;-1.00;-1.00;97828;285;1004197;-29
2023/06/02 04:44:18;;;;;;;6.10;4.40;;;;;;;-128.00;-1.00;-1.00;97747;297;1004648;-34
2023/06/02 04:46:45;;;;;;;7.50;4.80;;;;;;;-128.00;-1.00;-1.00;97950;285;1005821;-32
2023/06/02 04:49:11;;;;;;;11.70;5.10;;;;;;;-128.00;-1.00;-1.00;97822;296;1003525;-34
2023/06/02 04:51:37;;;;;;;5.70;4.20;;;;;;;-128.00;-1.00;-1.00;97844;296;1004265;-39
2023/06/02 04:54:03;;;;;;;12.40;5.50;;;;;;;-128.00;-1.00;-1.00;97927;285;1003171;-30
2023/06/02 04:56:30;;;;;;;13.30;6.00;;;;;;;-128.00;-1.00;-1.00;97755;297;1003714;-36
2023/06/02 04:58:56;;;;;;;14.60;4.90;;;;;;;-128.00;-1.00;-1.00;97869;285;1003568;-29
2023/06/02 05:01:21;;;;;;;3.60;3.10;;;;;;;-128.00;-1.00;-1.00;98003;285;1003745;-29
2023/06/02 05:03:47;;;;;;;12.90;5.80;;;;;;;-128.00;-1.00;-1.00;97783;297;1003027;-34
2023/06/02 05:06:13;;;;;;;9.30;4.60;;;;;;;-128.00;-1.00;-1.00;97848;296;1002804;-32
2023/06/02 05:08:38;;;;;;;4.20;3.60;;;;;;;-128.00;-1.00;-1.00;97961;289;1003831;-31
2023/06/02 05:11:05;;;;;;;9.10;3.80;;;;;;;-128.00;-1.00;-1.00;97763;296;1003617;-35
2023/06/02 05:13:31;;;;;;;6.00;3.90;;;;;;;-128.00;-1.00;-1.00;97834;285;1005342;-36
2023/06/02 05:15:56;;;;;;;7.00;4.20;;;;;;;-128.00;-1.00;-1.00;97803;296;1003639;-30
2023/06/02 05:18:23;;;;;;;3.80;2.90;;;;;;;-128.00;-1.00;-1.00;97858;296;1003633;-33
2023/06/02 05:20:50;;;;;;;7.60;4.70;;;;;;;-128.00;-1.00;-1.00;97839;285;1003409;-30
2023/06/02 05:23:17;;;;;;;12.90;4.70;;;;;;;-128.00;-1.00;-1.00;97891;285;1004030;-35
2023/06/02 05:25:42;;;;;;;5.30;4.00;;;;;;;-128.00;-1.00;-1.00;97954;296;1003575;-33
2023/06/02 05:28:08;;;;;;;6.80;4.10;;;;;;;-128.00;-1.00;-1.00;97788;285;1003902;-36
2023/06/02 05:30:35;;;;;;;5.20;2.90;;;;;;;-128.00;-1.00;-1.00;97888;296;1003544;-32
2023/06/02 05:33:00;;;;;;;14.80;5.00;;;;;;;-128.00;-1.00;-1.00;97961;296;1003265;-31
2023/06/02 05:35:26;;;;;;;16.90;4.30;;;;;;;-128.00;-1.00;-1.00;97923;296;1004265;-32
2023/06/02 05:37:51;;;;;;;5.30;2.90;;;;;;;-128.00;-1.00;-1.00;98082;296;1003907;-30
2023/06/02 05:40:17;;;;;;;9.40;3.70;;;;;;;-128.00;-1.00;-1.00;97745;285;1003155;-29
2023/06/02 05:42:42;;;;;;;7.40;5.20;;;;;;;-128.00;-1.00;-1.00;97823;289;1004136;-31
2023/06/02 05:45:09;;;;;;;13.20;4.60;;;;;;;-128.00;-1.00;-1.00;97891;285;1002955;-36
2023/06/02 05:47:34;;;;;;;10.20;3.20;;;;;;;-128.00;-1.00;-1.00;97946;285;1003472;-36
2023/06/02 05:50:03;;;;;;;7.70;5.00;;;;;;;-128.00;-1.00;-1.00;97968;285;1005627;-30
2023/06/02 05:52:29;;;;;;;10.50;3.50;;;;;;;-128.00;-1.00;-1.00;97850;285;1003579;-37
2023/06/02 05:54:55;;;;;;;4.30;2.40;;;;;;;-128.00;-1.00;-1.00;97783;296;1003792;-34
2023/06/02 05:57:21;;;;;;;3.70;1.50;;;;;;;-128.00;-1.00;-1.00;98016;296;1003654;-31
2023/06/02 05:59:46;;;;;;;5.50;2.60;;;;;;;-128.00;-1.00;-1.00;97867;296;1002723;-35
2023/06/02 06:02:12;;;;;;;5.00;2.20;;;;;;;-128.00;-1.00;-1.00;97871;285;1002901;-31
2023/06/02 06:04:38;;;;;;;8.50;2.70;;;;;;;-128.00;-1.00;-1.00;97804;285;1003503;-31
2023/06/02 06:07:03;;;;;;;6.80;1.80;;;;;;;-128.00;-1.00;-1.00;97972;296;1003839;-35
2023/06/02 06:09:29;;;;;;;5.40;2.40;;;;;;;-128.00;-1.00;-1.00;97788;285;1003070;-31
2023/06/02 06:11:55;;;;;;;3.50;2.30;;;;;;;-128.00;-1.00;-1.00;97753;297;1003266;-31
2023/06/02 06:14:21;;;;;;;2.80;2.20;;;;;;;-128.00;-1.00;-1.00;97928;285;1003319;-31
2023/06/02 06:16:46;;;;;;;11.40;3.20;;;;;;;-128.00;-1.00;-1.00;97841;296;1004007;-36
2023/06/02 06:19:12;;;;;;;5.30;1.80;;;;;;;-128.00;-1.00;-1.00;97838;296;1003256;-31
2023/06/02 06:21:38;;;;;;;3.10;1.60;;;;;;;-128.00;-1.00;-1.00;97822;285;1005165;-31
2023/06/02 06:24:05;;;;;;;4.40;1.70;;;;;;;-128.00;-1.00;-1.00;97904;296;1004737;-32
2023/06/02 06:26:30;;;;;;;4.10;2.40;;;;;;;-128.00;-1.00;-1.00;97900;296;1003173;-35
2023/06/02 06:28:56;;;;;;;3.60;1.80;;;;;;;-128.00;-1.00;-1.00;97864;296;1003589;-35
2023/06/02 06:31:22;;;;;;;7.60;2.10;;;;;;;-128.00;-1.00;-1.00;97865;296;1003651;-35
2023/06/02 06:33:47;;;;;;;2.80;1.50;;;;;;;-128.00;-1.00;-1.00;97866;296;1004868;-31
2023/06/02 06:36:13;;;;;;;6.50;1.70;;;;;;;-128.00;-1.00;-1.00;97694;285;1003902;-30
2023/06/02 06:38:40;;;;;;;5.50;1.50;;;;;;;-128.00;-1.00;-1.00;97802;296;1004377;-34
2023/06/02 06:41:06;;;;;;;3.90;1.80;;;;;;;-128.00;-1.00;-1.00;97873;285;1003430;-33
2023/06/02 06:43:31;;;;;;;3.70;2.00;;;;;;;-128.00;-1.00;-1.00;97886;285;1003991;-32
2023/06/02 06:45:59;;;;;;;3.30;1.70;;;;;;;-128.00;-1.00;-1.00;97800;285;1004509;-30
2023/06/02 06:48:25;;;;;;;9.10;1.50;;;;;;;-128.00;-1.00;-1.00;97890;296;1003327;-33
2023/06/02 06:50:53;;;;;;;3.80;1.30;;;;;;;-128.00;-1.00;-1.00;97910;285;1002538;-31
2023/06/02 06:53:19;;;;;;;9.40;1.40;;;;;;;-128.00;-1.00;-1.00;97849;296;1003604;-34
2023/06/02 06:55:46;;;;;;;7.70;1.30;;;;;;;-128.00;-1.00;-1.00;97783;285;1004142;-31
2023/06/02 06:58:11;;;;;;;3.10;1.50;;;;;;;-128.00;-1.00;-1.00;97729;298;1005195;-31
2023/06/02 07:00:37;;;;;;;3.80;1.20;;;;;;;-128.00;-1.00;-1.00;97847;296;1003034;-34
2023/06/02 07:03:03;;;;;;;2.70;0.80;;;;;;;-128.00;-1.00;-1.00;97831;296;1004971;-32
2023/06/02 07:05:28;;;;;;;3.70;0.80;;;;;;;-128.00;-1.00;-1.00;97800;296;1003348;-30
2023/06/02 07:07:54;;;;;;;3.80;1.00;;;;;;;-128.00;-1.00;-1.00;97799;296;1003287;-37
2023/06/02 07:10:20;;;;;;;3.50;1.00;;;;;;;-128.00;-1.00;-1.00;97843;296;1003553;-35
2023/06/02 07:12:49;;;;;;;12.30;2.50;;;;;;;-128.00;-1.00;-1.00;97897;285;1003277;-31
2023/06/02 07:15:15;;;;;;;7.40;1.30;;;;;;;-128.00;-1.00;-1.00;97905;285;1003225;-32
2023/06/02 07:17:41;;;;;;;8.60;2.00;;;;;;;-128.00;-1.00;-1.00;97822;285;1003170;-35
2023/06/02 07:20:09;;;;;;;3.60;1.40;;;;;;;-128.00;-1.00;-1.00;97874;285;1004234;-31
2023/06/02 07:22:34;;;;;;;6.00;2.00;;;;;;;-128.00;-1.00;-1.00;97841;296;1002824;-36
2023/06/02 07:25:02;;;;;;;6.20;1.40;;;;;;;-128.00;-1.00;-1.00;97903;285;1004862;-41
2023/06/02 07:27:28;;;;;;;6.30;1.50;;;;;;;-128.00;-1.00;-1.00;97951;285;1002781;-35
2023/06/02 07:29:54;;;;;;;2.90;1.10;;;;;;;-128.00;-1.00;-1.00;97788;285;1003109;-35
2023/06/02 07:32:19;;;;;;;5.50;1.40;;;;;;;-128.00;-1.00;-1.00;97752;296;1003932;-34
2023/06/02 07:34:45;;;;;;;3.40;1.00;;;;;;;-128.00;-1.00;-1.00;97815;289;1003399;-36
2023/06/02 07:37:10;;;;;;;3.60;1.60;;;;;;;-128.00;-1.00;-1.00;97821;297;1004583;-31
2023/06/02 07:39:36;;;;;;;8.10;2.10;;;;;;;-128.00;-1.00;-1.00;97966;296;1003515;-35
2023/06/02 07:42:01;;;;;;;11.10;2.30;;;;;;;-128.00;-1.00;-1.00;97815;285;1003388;-30
2023/06/02 07:44:27;;;;;;;3.50;1.30;;;;;;;-128.00;-1.00;-1.00;97867;296;1004081;-42
2023/06/02 07:46:53;;;;;;;2.40;0.90;;;;;;;-128.00;-1.00;-1.00;97926;296;1003450;-35
2023/06/02 07:49:18;;;;;;;5.90;1.30;;;;;;;-128.00;-1.00;-1.00;97901;297;1003819;-30
2023/06/02 07:51:45;;;;;;;5.00;1.60;;;;;;;-128.00;-1.00;-1.00;97909;285;1003808;-37
2023/06/02 07:54:10;;;;;;;3.50;1.40;;;;;;;-128.00;-1.00;-1.00;97766;285;1003825;-35
2023/06/02 07:56:36;;;;;;;3.60;1.50;;;;;;;-128.00;-1.00;-1.00;97814;285;1003932;-35
2023/06/02 07:59:02;;;;;;;3.80;1.60;;;;;;;-128.00;-1.00;-1.00;97945;285;1005704;-34
2023/06/02 08:01:28;;;;;;;6.20;1.60;;;;;;;-128.00;-1.00;-1.00;98005;285;1004052;-31
2023/06/02 08:03:53;;;;;;;3.30;1.30;;;;;;;-128.00;-1.00;-1.00;97812;296;1003179;-33
2023/06/02 08:06:19;;;;;;;3.60;1.40;;;;;;;-128.00;-1.00;-1.00;97799;296;1002810;-35
2023/06/02 08:08:45;;;;;;;4.60;1.50;;;;;;;-128.00;-1.00;-1.00;97836;284;1003127;-32
2023/06/02 08:11:12;;;;;;;2.40;1.20;;;;;;;-128.00;-1.00;-1.00;97870;285;1003354;-36
2023/06/02 08:13:37;;;;;;;4.00;1.30;;;;;;;-128.00;-1.00;-1.00;98026;296;1003025;-36
2023/06/02 08:16:03;;;;;;;3.50;1.20;;;;;;;-128.00;-1.00;-1.00;97803;296;1004206;-31
2023/06/02 08:18:29;;;;;;;3.20;1.10;;;;;;;-128.00;-1.00;-1.00;97713;298;1003107;-32
2023/06/02 08:20:54;;;;;;;2.10;0.90;;;;;;;-128.00;-1.00;-1.00;97766;298;1003292;-35
2023/06/02 08:23:20;;;;;;;1.80;1.30;;;;;;;-128.00;-1.00;-1.00;97719;296;1004306;-31
2023/06/02 08:25:46;;;;;;;2.70;1.40;;;;;;;-128.00;-1.00;-1.00;97812;285;1003727;-37
2023/06/02 08:28:13;;;;;;;9.00;2.00;;;;;;;-128.00;-1.00;-1.00;97880;285;1003002;-31
2023/06/02 08:30:41;;;;;;;3.70;1.60;;;;;;;-128.00;-1.00;-1.00;97750;285;1004155;-35
2023/06/02 08:33:09;;;;;;;5.50;2.00;;;;;;;-128.00;-1.00;-1.00;97898;296;1003042;-36
2023/06/02 08:35:39;;;;;;;3.10;0.80;;;;;;;-128.00;-1.00;-1.00;97821;296;1002984;-31
2023/06/02 08:38:07;;;;;;;5.10;1.50;;;;;;;-128.00;-1.00;-1.00;97642;296;1002926;-32
2023/06/02 08:40:35;;;;;;;1.90;0.70;;;;;;;-128.00;-1.00;-1.00;97760;296;1003359;-39
2023/06/02 08:43:06;;;;;;;2.30;1.30;;;;;;;-128.00;-1.00;-1.00;97940;296;1003638;-32
2023/06/02 08:45:33;;;;;;;3.50;1.30;;;;;;;-128.00;-1.00;-1.00;97908;285;1003266;-35
2023/06/02 08:47:58;;;;;;;1.30;0.90;;;;;;;-128.00;-1.00;-1.00;97841;285;1003407;-36
2023/06/02 08:50:27;;;;;;;2.00;0.90;;;;;;;-128.00;-1.00;-1.00;97910;296;1003260;-32
2023/06/02 08:52:55;;;;;;;2.10;0.90;;;;;;;-128.00;-1.00;-1.00;97824;285;1002777;-35
2023/06/02 08:55:23;;;;;;;5.20;1.10;;;;;;;-128.00;-1.00;-1.00;97824;296;1003620;-37
2023/06/02 08:57:49;;;;;;;5.30;1.30;;;;;;;-128.00;-1.00;-1.00;97901;285;1002750;-37
2023/06/02 09:00:15;;;;;;;7.20;1.30;;;;;;;-128.00;-1.00;-1.00;97995;296;1002597;-30
2023/06/02 09:02:40;;;;;;;2.30;1.00;;;;;;;-128.00;-1.00;-1.00;97997;296;1003121;-37
2023/06/02 09:05:07;;;;;;;3.50;0.90;;;;;;;-128.00;-1.00;-1.00;97789;296;1003794;-34
2023/06/02 09:07:33;;;;;;;7.30;1.40;;;;;;;-128.00;-1.00;-1.00;97921;285;1002635;-36
2023/06/02 09:09:59;;;;;;;7.90;1.40;;;;;;;-128.00;-1.00;-1.00;97944;296;1003578;-36
2023/06/02 09:12:24;;;;;;;1.40;1.10;;;;;;;-128.00;-1.00;-1.00;97808;296;1002720;-35
2023/06/02 09:15:07;;;;;;;8.30;0.90;;;;;;;-128.00;-1.00;-1.00;97815;285;1003041;-37
2023/06/02 09:17:32;;;;;;;2.30;1.50;;;;;;;-128.00;-1.00;-1.00;97464;296;1003829;-37
2023/06/02 09:20:01;;;;;;;7.00;1.50;;;;;;;-128.00;-1.00;-1.00;97972;296;1002946;-31
2023/06/02 09:22:26;;;;;;;4.10;1.10;;;;;;;-128.00;-1.00;-1.00;97881;285;1004215;-32
2023/06/02 09:24:53;;;;;;;1.60;1.30;;;;;;;-128.00;-1.00;-1.00;97910;285;1003084;-30
2023/06/02 09:27:19;;;;;;;3.80;1.20;;;;;;;-128.00;-1.00;-1.00;97942;289;1003236;-37
2023/06/02 09:29:46;;;;;;;2.70;1.20;;;;;;;-128.00;-1.00;-1.00;97911;298;1004448;-36
2023/06/02 09:32:14;;;;;;;3.90;1.20;;;;;;;-128.00;-1.00;-1.00;97862;285;1003023;-31
2023/06/02 09:34:40;;;;;;;14.80;1.90;;;;;;;-128.00;-1.00;-1.00;97942;296;1003483;-35
2023/06/02 09:37:18;;;;;;;14.10;1.00;;;;;;;-128.00;-1.00;-1.00;97830;285;1003259;-33
2023/06/02 09:39:48;;;;;;;1.40;0.70;;;;;;;-128.00;-1.00;-1.00;97820;296;1003367;-36
2023/06/02 09:42:17;;;;;;;2.00;1.10;;;;;;;-128.00;-1.00;-1.00;97801;285;1002862;-31
2023/06/02 09:44:50;;;;;;;3.20;0.90;;;;;;;-128.00;-1.00;-1.00;97898;285;1003256;-37
2023/06/02 09:47:20;;;;;;;3.90;1.00;;;;;;;-128.00;-1.00;-1.00;97899;296;1002777;-31
2023/06/02 09:49:47;;;;;;;3.90;0.80;;;;;;;-128.00;-1.00;-1.00;97848;296;1003372;-37
2023/06/02 09:52:14;;;;;;;2.60;0.80;;;;;;;-128.00;-1.00;-1.00;97890;296;1003326;-34
2023/06/02 09:54:42;;;;;;;7.30;1.40;;;;;;;-128.00;-1.00;-1.00;97803;296;1003296;-32
2023/06/02 09:57:09;;;;;;;7.70;1.40;;;;;;;-128.00;-1.00;-1.00;97893;296;1004124;-35
2023/06/02 09:59:35;;;;;;;3.40;1.10;;;;;;;-128.00;-1.00;-1.00;97931;296;1004940;-31
2023/06/02 10:02:00;;;;;;;4.00;1.00;;;;;;;-128.00;-1.00;-1.00;97990;296;1003564;-39
2023/06/02 10:04:26;;;;;;;3.70;1.30;;;;;;;-128.00;-1.00;-1.00;97950;285;1004093;-31
2023/06/02 10:07:13;;;;;;;3.30;1.10;;;;;;;-128.00;-1.00;-1.00;97972;296;1003078;-31
2023/06/02 10:09:57;;;;;;;3.10;0.80;;;;;;;-128.00;-1.00;-1.00;97770;296;1004046;-39
2023/06/02 10:12:33;;;;;;;4.40;0.90;;;;;;;-128.00;-1.00;-1.00;97903;285;1003232;-35
2023/06/02 10:15:16;;;;;;;4.80;1.20;;;;;;;-128.00;-1.00;-1.00;97868;296;1003506;-35
2023/06/02 10:17:57;;;;;;;1.70;0.70;;;;;;;-128.00;-1.00;-1.00;97860;298;1003586;-31
2023/06/02 10:20:26;;;;;;;3.80;0.90;;;;;;;-128.00;-1.00;-1.00;97890;296;1005579;-31
2023/06/02 10:23:15;;;;;;;7.40;1.20;;;;;;;-128.00;-1.00;-1.00;97822;296;1005131;-38
2023/06/02 10:25:52;;;;;;;1.80;1.20;;;;;;;-128.00;-1.00;-1.00;97803;285;1003554;-30
2023/06/02 10:28:18;;;;;;;4.70;1.00;;;;;;;-128.00;-1.00;-1.00;97811;296;1003646;-30
2023/06/02 10:30:44;;;;;;;3.70;1.30;;;;;;;-128.00;-1.00;-1.00;97864;296;1003173;-35
2023/06/02 10:33:10;;;;;;;1.80;1.00;;;;;;;-128.00;-1.00;-1.00;97812;296;1005109;-31
2023/06/02 10:35:55;;;;;;;3.10;0.80;;;;;;;-128.00;-1.00;-1.00;97857;297;1003283;-35
2023/06/02 10:38:33;;;;;;;3.90;1.50;;;;;;;-128.00;-1.00;-1.00;97900;296;1003427;-31
2023/06/02 10:40:59;;;;;;;7.00;1.70;;;;;;;-128.00;-1.00;-1.00;97907;296;1003072;-37
2023/06/02 10:43:25;;;;;;;3.00;1.10;;;;;;;-128.00;-1.00;-1.00;97973;296;1004083;-37
2023/06/02 10:45:50;;;;;;;3.70;1.00;;;;;;;-128.00;-1.00;-1.00;97789;296;1003932;-30
2023/06/02 10:48:40;;;;;;;3.50;0.80;;;;;;;-128.00;-1.00;-1.00;97799;296;1004444;-31
2023/06/02 10:51:18;;;;;;;4.80;1.70;;;;;;;-128.00;-1.00;-1.00;97801;296;1003347;-30
2023/06/02 10:54:15;;;;;;;5.40;1.10;;;;;;;-128.00;-1.00;-1.00;97940;296;1002998;-37
2023/06/02 10:56:56;;;;;;;2.80;0.80;;;;;;;-128.00;-1.00;-1.00;97858;296;1003993;-30
2023/06/02 10:59:35;;;;;;;6.50;1.30;;;;;;;-128.00;-1.00;-1.00;97933;296;1003070;-32
2023/06/02 11:02:13;;;;;;;3.50;1.40;;;;;;;-128.00;-1.00;-1.00;97941;285;1002965;-35
2023/06/02 11:04:51;;;;;;;1.50;0.50;;;;;;;-128.00;-1.00;-1.00;97760;285;1002741;-30
2023/06/02 11:07:29;;;;;;;3.20;0.90;;;;;;;-128.00;-1.00;-1.00;97848;296;1003572;-30
2023/06/02 11:10:06;;;;;;;2.60;1.40;;;;;;;-128.00;-1.00;-1.00;97844;296;1003250;-30
2023/06/02 11:13:04;;;;;;;3.50;1.10;;;;;;;-128.00;-1.00;-1.00;97774;285;1002924;-30
2023/06/02 11:15:58;;;;;;;4.70;1.10;;;;;;;-128.00;-1.00;-1.00;97880;296;1003235;-35
2023/06/02 11:18:39;;;;;;;;;;;;;;;-128.00;-1.00;-1.00;97891;296;1004648;-30
2023/06/02 11:21:19;;;;;;;2.50;1.10;;;;;;;-128.00;-1.00;-1.00;97863;296;1002625;-32
2023/06/02 11:23:57;;;;;;;4.40;1.40;;;;;;;-128.00;-1.00;-1.00;97864;285;1002970;-36
2023/06/02 11:26:46;;;;;;;2.10;1.00;;;;;;;-128.00;-1.00;-1.00;97941;296;1003610;-32
2023/06/02 11:29:16;;;;;;;3.20;1.20;;;;;;;-128.00;-1.00;-1.00;97828;296;1004244;-35
2023/06/02 11:31:47;;;;;;;4.10;1.70;;;;;;;-128.00;-1.00;-1.00;97864;296;1003524;-31
2023/06/02 11:34:16;;;;;;;1.80;0.90;;;;;;;-128.00;-1.00;-1.00;97943;296;1003784;-35
2023/06/02 11:36:42;;;;;;;4.10;1.50;;;;;;;-128.00;-1.00;-1.00;97843;296;1003710;-31
2023/06/02 11:39:09;;;;;;;1.50;1.30;;;;;;;-128.00;-1.00;-1.00;97874;285;1003327;-35
2023/06/02 11:41:34;;;;;;;7.70;1.60;;;;;;;-128.00;-1.00;-1.00;97833;285;1005184;-29
2023/06/02 11:44:04;;;;;;;5.00;2.70;;;;;;;-128.00;-1.00;-1.00;97788;285;1003361;-31
2023/06/02 11:46:30;;;;;;;3.90;3.00;;;;;;;-128.00;-1.00;-1.00;97893;297;1003317;-29
2023/06/02 11:48:55;;;;;;;4.50;3.00;;;;;;;-128.00;-1.00;-1.00;97948;296;1003037;-38
2023/06/02 11:51:22;;;;;;;5.80;2.80;;;;;;;-128.00;-1.00;-1.00;97889;285;1003648;-32
2023/06/02 11:54:07;;;;;;;4.80;2.60;;;;;;;-128.00;-1.00;-1.00;97822;296;1003040;-33
2023/06/02 11:56:33;;;;;;;4.90;2.20;;;;;;;-128.00;-1.00;-1.00;97919;285;1003232;-30
2023/06/02 11:59:00;;;;;;;10.70;3.30;;;;;;;-128.00;-1.00;-1.00;98009;285;1003460;-36
2023/06/02 12:01:32;;;;;;;2.80;2.00;;;;;;;-128.00;-1.00;-1.00;97859;285;1004108;-30
2023/06/02 12:04:04;;;;;;;20.20;3.00;;;;;;;-128.00;-1.00;-1.00;97964;289;1002931;-31
2023/06/02 12:06:30;;;;;;;13.70;2.60;;;;;;;-128.00;-1.00;-1.00;97790;285;1004651;-31
2023/06/02 12:08:56;;;;;;;2.40;1.80;;;;;;;-128.00;-1.00;-1.00;97781;285;1002716;-31
2023/06/02 12:11:22;;;;;;;4.10;2.40;;;;;;;-128.00;-1.00;-1.00;97924;285;1003024;-35
2023/06/02 12:14:01;;;;;;;2.80;1.40;;;;;;;-128.00;-1.00;-1.00;97829;296;1002998;-35
2023/06/02 12:16:27;;;;;;;2.70;1.60;;;;;;;-128.00;-1.00;-1.00;97924;285;1003524;-37